createdAt,value
2023-05-10T00:03:56.649Z,10.73
2023-05-10T00:08:48.303Z,10.66
2023-05-10T00:13:39.893Z,10.62
2023-05-10T00:18:31.463Z,10.54
2023-05-10T00:23:23.096Z,10.46
2023-05-10T00:28:14.709Z,10.38
2023-05-10T00:33:06.355Z,10.29
2023-05-10T00:37:57.878Z,10.20
2023-05-10T00:42:49.472Z,10.14
2023-05-10T00:47:41.607Z,10.08
2023-05-10T00:52:33.385Z,10.07
2023-05-10T00:57:25.651Z,10.02
2023-05-10T01:02:17.246Z,9.98
2023-05-10T01:07:08.850Z,9.94
2023-05-10T01:12:02.591Z,9.89
2023-05-10T01:16:55.017Z,9.86
2023-05-10T01:21:52.165Z,9.82
2023-05-10T01:26:56.099Z,9.75
2023-05-10T01:32:02.370Z,9.68
2023-05-10T01:37:07.128Z,9.62
2023-05-10T01:42:09.801Z,9.56
2023-05-10T01:47:41.011Z,9.51
2023-05-10T01:52:41.974Z,9.45
2023-05-10T01:57:40.625Z,9.40
2023-05-10T02:02:44.404Z,9.29
2023-05-10T02:07:39.267Z,9.37
2023-05-10T02:12:33.268Z,9.34
2023-05-10T02:17:26.026Z,9.31
2023-05-10T02:22:19.064Z,9.30
2023-05-10T02:27:12.538Z,9.25
2023-05-10T02:32:05.493Z,9.18
2023-05-10T02:36:57.964Z,9.11
2023-05-10T02:41:51.315Z,9.09
2023-05-10T02:46:43.026Z,9.10
2023-05-10T02:51:38.422Z,9.10
2023-05-10T02:56:34.268Z,9.11
2023-05-10T03:01:25.993Z,9.14
2023-05-10T03:06:17.676Z,9.16
2023-05-10T03:11:09.210Z,9.21
2023-05-10T03:16:08.924Z,9.24
2023-05-10T03:21:06.230Z,9.26
2023-05-10T03:25:58.964Z,9.28
2023-05-10T03:30:50.907Z,9.30
2023-05-10T03:35:42.569Z,9.35
2023-05-10T03:40:34.261Z,9.41
2023-05-10T03:45:26.136Z,9.46
2023-05-10T03:50:17.917Z,9.53
2023-05-10T03:55:10.026Z,9.59
2023-05-10T04:00:01.804Z,9.62
2023-05-10T04:04:53.489Z,9.62
2023-05-10T04:09:45.164Z,9.55
2023-05-10T04:14:36.715Z,9.54
2023-05-10T04:19:31.651Z,9.56
2023-05-10T04:24:23.232Z,9.58
2023-05-10T04:29:14.768Z,9.58
2023-05-10T04:34:06.358Z,9.58
2023-05-10T04:38:57.904Z,9.61
2023-05-10T04:43:50.521Z,9.64
2023-05-10T04:48:42.103Z,9.62
2023-05-10T04:53:33.927Z,9.61
2023-05-10T04:58:25.985Z,9.59
2023-05-10T05:03:17.683Z,9.56
2023-05-10T05:08:09.329Z,9.59
2023-05-10T05:13:01.008Z,9.88
2023-05-10T05:17:52.917Z,10.21
2023-05-10T05:22:44.537Z,10.75
2023-05-10T05:27:36.112Z,11.40
2023-05-10T05:32:27.776Z,11.99
2023-05-10T05:37:20.985Z,12.56
2023-05-10T05:42:14.299Z,13.13
2023-05-10T05:47:06.675Z,13.55
2023-05-10T05:52:03.289Z,13.69
2023-05-10T05:56:56.487Z,14.14
2023-05-10T06:01:48.114Z,14.49
2023-05-10T06:06:39.738Z,14.97
2023-05-10T06:11:33.181Z,15.58
2023-05-10T06:16:24.849Z,16.19
2023-05-10T06:21:17.221Z,16.61
2023-05-10T06:26:08.900Z,16.45
2023-05-10T06:31:01.096Z,16.70
2023-05-10T06:35:53.057Z,17.07
2023-05-10T06:40:45.021Z,16.92
2023-05-10T06:45:36.633Z,16.55
2023-05-10T06:50:28.288Z,16.19
2023-05-10T06:55:20.038Z,15.81
2023-05-10T07:00:12.106Z,15.47
2023-05-10T07:05:03.868Z,15.25
2023-05-10T07:09:55.689Z,14.99
2023-05-10T07:14:47.756Z,14.81
2023-05-10T07:19:39.362Z,14.61
2023-05-10T07:24:32.333Z,14.53
2023-05-10T07:29:24.069Z,14.50
2023-05-10T07:34:16.050Z,14.57
2023-05-10T07:39:07.986Z,14.69
2023-05-10T07:43:59.615Z,14.91
2023-05-10T07:48:51.249Z,14.97
2023-05-10T07:53:42.924Z,15.08
2023-05-10T07:58:34.510Z,15.08
2023-05-10T08:03:26.195Z,15.13
2023-05-10T08:08:18.530Z,15.19
2023-05-10T08:13:10.155Z,15.17
2023-05-10T08:18:01.803Z,15.19
2023-05-10T08:22:53.542Z,15.37
2023-05-10T08:27:45.098Z,15.63
2023-05-10T08:32:36.706Z,15.68
2023-05-10T08:37:31.150Z,15.74
2023-05-10T08:42:26.510Z,15.78
2023-05-10T08:47:19.254Z,15.66
2023-05-10T08:52:14.114Z,15.65
2023-05-10T08:57:06.081Z,15.81
2023-05-10T09:01:59.910Z,16.09
2023-05-10T09:06:51.774Z,16.82
2023-05-10T09:11:43.571Z,17.45
2023-05-10T09:16:35.362Z,17.69
2023-05-10T09:21:27.326Z,18.12
2023-05-10T09:26:23.792Z,18.54
2023-05-10T09:31:15.362Z,18.80
2023-05-10T09:36:10.436Z,18.66
2023-05-10T09:41:03.662Z,19.33
2023-05-10T09:45:55.324Z,20.14
2023-05-10T09:50:57.192Z,20.21
2023-05-10T09:55:50.285Z,19.70
2023-05-10T10:00:43.436Z,19.01
2023-05-10T10:05:36.360Z,18.40
2023-05-10T10:10:29.607Z,18.10
2023-05-10T10:15:24.711Z,17.96
2023-05-10T10:20:17.202Z,18.10
2023-05-10T10:25:09.621Z,18.68
2023-05-10T10:30:28.619Z,19.26
2023-05-10T10:35:20.499Z,19.37
2023-05-10T10:40:24.045Z,19.03
2023-05-10T10:45:15.814Z,18.66
2023-05-10T10:50:09.259Z,18.70
2023-05-10T10:55:23.474Z,19.22
2023-05-10T11:00:28.911Z,19.50
2023-05-10T11:05:42.790Z,19.71
2023-05-10T11:10:34.486Z,19.45
2023-05-10T11:15:31.143Z,18.95
2023-05-10T11:20:25.811Z,18.69
2023-05-10T11:25:17.337Z,18.56
2023-05-10T11:30:11.720Z,18.85
2023-05-10T11:35:11.423Z,19.31
2023-05-10T11:40:03.991Z,19.38
2023-05-10T11:44:55.842Z,19.49
2023-05-10T11:49:49.016Z,19.85
2023-05-10T11:54:52.595Z,19.65
2023-05-10T11:59:44.274Z,19.35
2023-05-10T12:04:36.066Z,19.01
2023-05-10T12:09:42.710Z,18.63
2023-05-10T12:14:36.734Z,18.48
2023-05-10T12:19:28.401Z,18.44
2023-05-10T12:24:20.306Z,18.19
2023-05-10T12:29:15.909Z,18.01
2023-05-10T12:34:09.065Z,17.98
2023-05-10T12:39:04.311Z,18.15
2023-05-10T12:43:56.098Z,18.20
2023-05-10T12:48:55.204Z,18.45
2023-05-10T12:53:51.824Z,18.73
2023-05-10T12:58:48.900Z,18.86
2023-05-10T13:03:40.840Z,18.80
2023-05-10T13:08:34.671Z,18.86
2023-05-10T13:13:26.450Z,18.97
2023-05-10T13:18:18.240Z,19.01
2023-05-10T13:23:10.681Z,18.89
2023-05-10T13:28:03.090Z,18.83
2023-05-10T13:32:54.669Z,18.86
2023-05-10T13:37:46.354Z,18.80
2023-05-10T13:42:38.527Z,18.76
2023-05-10T13:47:30.224Z,18.76
2023-05-10T13:52:22.183Z,18.85
2023-05-10T13:57:14.957Z,18.82
2023-05-10T14:02:07.422Z,18.83
2023-05-10T14:06:59.033Z,19.12
2023-05-10T14:11:50.675Z,19.08
2023-05-10T14:16:45.766Z,18.51
2023-05-10T14:21:37.501Z,17.72
2023-05-10T14:26:29.105Z,17.00
2023-05-10T14:31:21.564Z,16.66
2023-05-10T14:36:14.120Z,16.40
2023-05-10T14:41:05.817Z,16.11
2023-05-10T14:45:57.407Z,15.99
2023-05-10T14:50:50.663Z,15.79
2023-05-10T14:55:42.376Z,15.69
2023-05-10T15:00:34.117Z,15.38
2023-05-10T15:05:26.129Z,15.29
2023-05-10T15:10:19.109Z,15.25
2023-05-10T15:15:10.830Z,15.34
2023-05-10T15:20:04.416Z,15.58
2023-05-10T15:24:56.384Z,15.81
2023-05-10T15:29:47.948Z,16.01
2023-05-10T15:34:40.698Z,16.08
2023-05-10T15:39:32.262Z,16.03
2023-05-10T15:44:24.133Z,16.09
2023-05-10T15:49:15.809Z,16.16
2023-05-10T15:54:09.871Z,16.23
2023-05-10T15:59:01.535Z,16.16
2023-05-10T16:03:53.108Z,16.17
2023-05-10T16:08:44.635Z,16.15
2023-05-10T16:13:36.298Z,16.13
2023-05-10T16:18:27.875Z,16.10
2023-05-10T16:23:19.775Z,16.07
2023-05-10T16:28:11.428Z,16.03
2023-05-10T16:33:03.658Z,16.03
2023-05-10T16:37:55.422Z,16.04
2023-05-10T16:42:47.036Z,15.98
2023-05-10T16:47:40.270Z,15.95
2023-05-10T16:52:32.653Z,15.87
2023-05-10T16:57:24.365Z,15.79
2023-05-10T17:02:16.060Z,15.75
2023-05-10T17:07:08.706Z,15.73
2023-05-10T17:12:00.753Z,15.66
2023-05-10T17:16:53.200Z,15.63
2023-05-10T17:21:44.914Z,15.65
2023-05-10T17:26:37.302Z,15.66
2023-05-10T17:31:29.889Z,15.70
2023-05-10T17:36:21.903Z,15.76
2023-05-10T17:41:14.900Z,15.74
2023-05-10T17:46:06.491Z,15.68
2023-05-10T17:50:58.200Z,15.63
2023-05-10T17:55:52.092Z,15.59
2023-05-10T18:00:43.739Z,15.43
2023-05-10T18:05:37.267Z,15.30
2023-05-10T18:10:29.449Z,15.25
2023-05-10T18:15:21.321Z,15.16
2023-05-10T18:20:13.310Z,15.11
2023-05-10T18:25:05.444Z,15.06
2023-05-10T18:29:57.286Z,15.00
2023-05-10T18:34:48.966Z,14.91
2023-05-10T18:39:40.956Z,14.84
2023-05-10T18:44:32.480Z,14.74
2023-05-10T18:49:24.435Z,14.66
2023-05-10T18:54:16.165Z,14.55
2023-05-10T18:59:07.719Z,14.45
2023-05-10T19:03:59.505Z,14.31
2023-05-10T19:08:51.134Z,14.22
2023-05-10T19:13:42.891Z,14.13
2023-05-10T19:18:34.851Z,14.12
2023-05-10T19:23:26.999Z,14.00
2023-05-10T19:28:19.038Z,13.91
2023-05-10T19:33:12.738Z,13.83
2023-05-10T19:38:04.978Z,13.73
2023-05-10T19:42:57.177Z,13.68
2023-05-10T19:47:48.759Z,13.60
2023-05-10T19:52:40.356Z,13.50
2023-05-10T19:57:31.914Z,13.44
2023-05-10T20:02:23.636Z,13.38
2023-05-10T20:07:15.362Z,13.28
2023-05-10T20:12:06.866Z,13.19
2023-05-10T20:16:58.565Z,13.16
2023-05-10T20:21:50.371Z,13.07
2023-05-10T20:26:41.920Z,12.99
2023-05-10T20:31:33.865Z,12.90
2023-05-10T20:36:26.676Z,12.79
2023-05-10T20:41:18.301Z,12.69
2023-05-10T20:46:10.201Z,12.63
2023-05-10T20:51:02.532Z,12.62
2023-05-10T20:55:54.140Z,12.60
2023-05-10T21:00:45.858Z,12.59
2023-05-10T21:05:37.401Z,12.56
2023-05-10T21:10:28.983Z,12.50
2023-05-10T21:15:22.606Z,12.46
2023-05-10T21:20:14.440Z,12.40
2023-05-10T21:25:06.397Z,12.37
2023-05-10T21:29:57.995Z,12.35
2023-05-10T21:34:49.520Z,12.30
2023-05-10T21:39:41.119Z,12.30
2023-05-10T21:44:32.696Z,12.22
2023-05-10T21:49:24.334Z,12.12
2023-05-10T21:54:15.888Z,12.06
2023-05-10T21:59:07.529Z,12.01
2023-05-10T22:03:59.081Z,11.96
2023-05-10T22:08:51.219Z,11.93
2023-05-10T22:13:42.786Z,11.93
2023-05-10T22:18:34.540Z,11.89
2023-05-10T22:23:26.238Z,11.90
2023-05-10T22:28:17.786Z,11.89
2023-05-10T22:33:09.379Z,11.92
2023-05-10T22:38:01.135Z,11.90
2023-05-10T22:42:52.665Z,11.86
2023-05-10T22:47:44.287Z,11.79
2023-05-10T22:52:38.810Z,11.74
2023-05-10T22:57:31.081Z,11.64
2023-05-10T23:02:22.705Z,11.53
2023-05-10T23:07:14.385Z,11.50
2023-05-10T23:12:05.980Z,11.42
2023-05-10T23:16:57.744Z,11.34
2023-05-10T23:21:49.293Z,11.33
2023-05-10T23:26:41.119Z,11.33
2023-05-10T23:31:32.789Z,11.30
2023-05-10T23:36:24.327Z,11.28
2023-05-10T23:41:15.934Z,11.28
2023-05-10T23:46:07.499Z,11.29
2023-05-10T23:50:59.054Z,11.28
2023-05-10T23:55:50.598Z,11.25
